Time;durP1;ratioP1;P1;durP2;ratioP2;P2;SDS_P1;SDS_P2;PMS_P1;PMS_P2;Temp;Humidity;BMP_temperature;BMP_pressure;BME280_temperature;BME280_humidity;BME280_pressure;Samples;Min_cycle;Max_cycle;Signal;HPM_P1;HPM_P2
2021/09/26 00:00:53;;;;;;;;;20.50;16.00;;;;;18.76;71.81;101235.00;5079527;28;45441;-86
2021/09/26 00:03:19;;;;;;;;;16.75;13.75;;;;;18.69;71.81;101221.19;5079446;28;45426;-87
2021/09/26 00:05:44;;;;;;;;;17.25;16.00;;;;;18.62;71.89;101239.31;5078454;28;45479;-86
2021/09/26 00:08:09;;;;;;;;;19.50;17.25;;;;;18.61;71.77;101239.44;5079940;27;45420;-85
2021/09/26 00:10:35;;;;;;;;;16.25;15.00;;;;;18.54;72.21;101238.94;5079594;28;46282;-88
2021/09/26 00:13:01;;;;;;;;;20.50;17.75;;;;;18.44;72.58;101238.63;5077524;28;45742;-85
2021/09/26 00:15:26;;;;;;;;;16.50;15.25;;;;;18.36;72.63;101239.06;5080375;27;45268;-86
2021/09/26 00:17:53;;;;;;;;;17.50;13.75;;;;;18.33;72.63;101247.22;5079693;27;45388;-85
2021/09/26 00:20:19;;;;;;;;;16.25;14.75;;;;;18.28;72.94;101244.84;5080764;27;45292;-89
2021/09/26 00:22:45;;;;;;;;;21.25;15.50;;;;;18.24;72.98;101243.31;5079469;27;45566;-86
2021/09/26 00:25:12;;;;;;;;;15.50;14.25;;;;;18.20;73.10;101247.94;5079826;27;45167;-85
2021/09/26 00:27:38;;;;;;;;;19.25;16.25;;;;;18.18;73.04;101248.94;5079813;27;45283;-86
2021/09/26 00:30:06;;;;;;;;;19.75;15.50;;;;;18.18;73.15;101260.44;5079496;28;46595;-86
2021/09/26 00:32:31;;;;;;;;;16.00;16.00;;;;;18.18;72.72;101260.44;5079525;28;45415;-86
2021/09/26 00:34:56;;;;;;;;;20.50;15.25;;;;;18.20;73.11;101271.00;5079685;27;45868;-86
2021/09/26 00:37:22;;;;;;;;;22.25;17.75;;;;;18.16;73.42;101266.78;5079819;28;45305;-85
2021/09/26 00:42:29;;;;;;;;;16.50;14.50;;;;;18.14;73.06;101266.88;5939121;22;46667;-96
2021/09/26 00:44:55;;;;;;;;;14.75;14.75;;;;;18.09;73.73;101256.50;5092201;27;44855;-96
2021/09/26 00:47:20;;;;;;;;;17.75;16.25;;;;;18.09;73.65;101255.66;5059283;28;45901;-95
2021/09/26 00:49:48;;;;;;;;;17.00;16.25;;;;;18.02;73.89;101252.47;5059388;28;47798;-96
2021/09/26 00:52:14;;;;;;;;;18.25;15.75;;;;;18.06;73.72;101272.63;5059915;28;46525;-96
2021/09/26 00:54:41;;;;;;;;;16.00;15.75;;;;;18.02;73.94;101264.91;5052913;28;45417;-89
2021/09/26 00:57:06;;;;;;;;;17.00;15.50;;;;;17.97;73.66;101267.84;5059038;28;45374;-88
2021/09/26 00:59:32;;;;;;;;;15.75;15.00;;;;;17.93;73.87;101259.16;5058770;28;45500;-88
2021/09/26 01:01:57;;;;;;;;;17.50;14.50;;;;;17.96;74.05;101271.44;5059614;28;45348;-88
2021/09/26 01:04:23;;;;;;;;;17.00;15.25;;;;;17.95;73.69;101275.88;5059001;28;45212;-87
2021/09/26 01:06:56;;;;;;;;;15.75;15.00;;;;;18.04;73.78;101285.16;5058610;28;45409;-87
2021/09/26 01:09:43;;;;;;;;;13.00;12.25;;;;;18.10;73.64;101283.94;5042556;28;45646;-89
2021/09/26 01:12:20;;;;;;;;;20.75;16.50;;;;;18.07;73.51;101271.69;5058876;28;45592;-88
2021/09/26 01:15:08;;;;;;;;;18.25;15.75;;;;;18.14;73.79;101274.88;5041684;28;45387;-87
2021/09/26 01:17:50;;;;;;;;;14.00;14.00;;;;;18.15;73.82;101273.91;5044229;28;45314;-88
2021/09/26 01:20:35;;;;;;;;;13.25;13.25;;;;;18.14;73.31;101293.47;5060596;28;46138;-88
2021/09/26 01:23:03;;;;;;;;;13.75;13.00;;;;;18.14;73.32;101285.50;5062194;28;45253;-88
2021/09/26 01:25:57;;;;;;;;;17.75;14.00;;;;;18.10;73.32;101286.59;5056628;28;45287;-87
2021/09/26 01:28:28;;;;;;;;;20.75;15.75;;;;;18.13;73.37;101304.19;5040928;28;46311;-89
2021/09/26 01:30:58;;;;;;;;;13.50;13.50;;;;;18.07;73.48;101294.78;5075723;28;46390;-88
2021/09/26 01:33:31;;;;;;;;;15.50;13.25;;;;;18.08;73.52;101296.47;5062274;28;45374;-89
2021/09/26 01:36:01;;;;;;;;;15.25;13.50;;;;;18.07;73.51;101305.41;5045209;28;45444;-88
2021/09/26 01:38:38;;;;;;;;;12.50;12.00;;;;;18.04;73.69;101303.78;5042190;28;45535;-90
2021/09/26 01:41:27;;;;;;;;;15.50;14.50;;;;;18.04;73.64;101301.13;5057918;28;46458;-90
2021/09/26 01:43:56;;;;;;;;;14.50;14.50;;;;;17.98;73.30;101294.34;5060927;28;45719;-91
2021/09/26 06:28:28;;;;;;;;;16.00;14.25;;;;;18.96;71.46;101312.84;5781029;22;46009;-86
2021/09/26 06:30:53;;;;;;;;;22.25;18.75;;;;;18.92;72.34;101304.16;5076332;28;45226;-83
2021/09/26 06:33:19;;;;;;;;;18.50;13.25;;;;;18.94;71.28;101307.59;5055205;28;45276;-82
2021/09/26 06:35:44;;;;;;;;;15.50;14.50;;;;;18.95;71.47;101322.63;5079473;28;45413;-83
2021/09/26 06:38:10;;;;;;;;;18.00;15.25;;;;;18.96;71.20;101313.69;5071607;28;45434;-83
2021/09/26 06:40:35;;;;;;;;;20.75;17.00;;;;;19.00;71.53;101317.03;5061289;28;45416;-83
2021/09/26 06:43:01;;;;;;;;;17.25;15.75;;;;;19.04;71.29;101331.84;5062570;28;45472;-83
2021/09/26 06:45:26;;;;;;;;;14.25;13.50;;;;;19.03;71.35;101324.84;5078673;28;45409;-84
2021/09/26 06:47:52;;;;;;;;;21.75;17.00;;;;;19.05;72.24;101322.94;5061395;28;45366;-84
2021/09/26 06:50:17;;;;;;;;;20.00;16.75;;;;;19.05;71.84;101333.59;5070479;28;45395;-83
2021/09/26 06:52:43;;;;;;;;;16.50;15.75;;;;;19.06;71.53;101345.94;5081632;28;45531;-76
2021/09/26 06:55:09;;;;;;;;;23.50;20.00;;;;;19.06;71.56;101348.59;5080636;28;45310;-91
2021/09/26 06:57:34;;;;;;;;;16.00;14.00;;;;;19.04;72.33;101345.19;5062815;28;48214;-86
2021/09/26 07:00:00;;;;;;;;;21.50;16.50;;;;;19.02;72.01;101349.75;5062229;28;45282;-80
2021/09/26 07:02:26;;;;;;;;;18.25;17.00;;;;;19.00;72.08;101346.31;5081253;28;45344;-80
2021/09/26 07:04:53;;;;;;;;;23.25;17.75;;;;;19.00;72.77;101346.31;5080929;27;45282;-80
2021/09/26 07:07:22;;;;;;;;;19.00;17.50;;;;;18.99;72.45;101352.59;5080851;28;45460;-80
2021/09/26 07:09:49;;;;;;;;;17.25;17.25;;;;;18.98;72.20;101349.09;5080787;28;45265;-80
2021/09/26 07:12:15;;;;;;;;;21.75;16.25;;;;;19.02;71.79;101363.06;5079735;28;45899;-80
2021/09/26 07:14:41;;;;;;;;;21.50;20.25;;;;;19.06;72.17;101359.25;5079793;28;45471;-80
2021/09/26 07:17:07;;;;;;;;;21.50;18.50;;;;;19.13;72.07;101362.44;5080032;28;45444;-80
2021/09/26 07:19:32;;;;;;;;;18.50;18.50;;;;;19.11;72.32;101362.50;5080696;28;45154;-80
2021/09/26 07:21:58;;;;;;;;;23.00;19.25;;;;;19.10;72.73;101352.81;5081018;28;45247;-80
2021/09/26 07:24:23;;;;;;;;;21.25;18.50;;;;;19.10;72.25;101357.28;5071301;28;45508;-80
2021/09/26 07:26:49;;;;;;;;;18.00;17.25;;;;;19.08;71.63;101353.88;5060752;28;45226;-80
2021/09/26 07:29:14;;;;;;;;;18.00;15.25;;;;;19.12;72.07;101366.91;5072688;28;45157;-80
2021/09/26 07:31:39;;;;;;;;;15.50;14.50;;;;;19.19;71.61;101378.06;5060540;28;45283;-80
2021/09/26 07:34:05;;;;;;;;;20.00;18.75;;;;;19.19;71.73;101369.22;5080185;28;45472;-80
2021/09/26 07:36:31;;;;;;;;;19.50;18.00;;;;;19.23;71.51;101374.31;5079642;28;45417;-80
2021/09/26 07:38:56;;;;;;;;;14.75;14.25;;;;;19.27;71.17;101382.09;5079048;28;45394;-81
2021/09/26 07:41:22;;;;;;;;;19.00;17.75;;;;;19.29;71.33;101383.72;5072480;28;45476;-82
2021/09/26 07:43:48;;;;;;;;;17.75;17.00;;;;;19.36;71.00;101394.03;5067117;28;45492;-82
2021/09/26 07:46:14;;;;;;;;;15.75;15.25;;;;;19.33;71.99;101387.91;5072945;28;45362;-81
2021/09/26 07:48:39;;;;;;;;;16.50;13.50;;;;;19.41;70.85;101410.59;5080835;28;45250;-82
2021/09/26 07:51:05;;;;;;;;;14.75;14.50;;;;;19.42;70.59;101394.50;5074111;28;45258;-83
2021/09/26 07:53:32;;;;;;;;;17.75;16.50;;;;;19.42;70.76;101393.63;5054483;28;45537;-82
2021/09/26 07:55:59;;;;;;;;;18.50;15.75;;;;;19.45;70.53;101404.13;5063434;28;45398;-79
2021/09/26 07:58:26;;;;;;;;;23.00;14.25;;;;;19.44;70.39;101408.59;5065923;28;45291;-79
2021/09/26 08:00:52;;;;;;;;;22.00;21.50;;;;;19.48;71.27;101403.94;5066140;28;45489;-79
2021/09/26 08:03:17;;;;;;;;;18.00;16.50;;;;;19.51;70.55;101417.06;5063437;28;45368;-79
2021/09/26 08:05:43;;;;;;;;;23.00;17.00;;;;;19.52;70.42;101415.25;5059652;28;45430;-79
2021/09/26 08:08:08;;;;;;;;;16.00;13.75;;;;;19.51;70.48;101411.75;5059688;28;45516;-79
2021/09/26 08:10:34;;;;;;;;;15.00;13.25;;;;;19.54;70.95;101408.03;5062637;28;46421;-79
2021/09/26 08:12:59;;;;;;;;;20.00;16.50;;;;;19.62;70.50;101413.75;5076764;28;46327;-79
2021/09/26 08:15:25;;;;;;;;;17.25;16.75;;;;;19.61;70.26;101419.16;5080182;28;46430;-79
2021/09/26 08:17:50;;;;;;;;;15.75;14.50;;;;;19.64;70.43;101417.19;5079342;28;46630;-79
2021/09/26 08:20:17;;;;;;;;;15.25;15.25;;;;;19.64;70.92;101413.66;5079985;28;45413;-79
2021/09/26 08:22:43;;;;;;;;;17.75;16.50;;;;;19.72;70.21;101415.84;5078958;28;45437;-79
2021/09/26 08:25:09;;;;;;;;;17.25;15.75;;;;;19.75;70.21;101415.69;5065016;28;46361;-79
2021/09/26 08:27:36;;;;;;;;;16.25;16.25;;;;;19.75;69.88;101405.88;5062830;28;45508;-79
2021/09/26 08:30:07;;;;;;;;;17.75;15.50;;;;;19.83;70.35;101405.38;5079683;28;45374;-79
2021/09/26 08:32:33;;;;;;;;;15.50;14.25;;;;;19.89;70.33;101418.34;5079504;28;45388;-79
2021/09/26 08:34:59;;;;;;;;;16.25;15.25;;;;;19.96;69.47;101418.81;5070454;28;46252;-79
2021/09/26 08:37:25;;;;;;;;;17.00;17.00;;;;;20.04;70.00;101418.34;5067643;27;45436;-79
2021/09/26 08:39:50;;;;;;;;;14.00;13.00;;;;;20.11;71.03;101418.84;5080242;28;45331;-79
2021/09/26 08:42:16;;;;;;;;;16.75;15.50;;;;;20.19;68.98;101421.88;5075096;28;45962;-79
2021/09/26 08:44:42;;;;;;;;;15.50;14.25;;;;;20.19;69.20;101423.69;5073071;28;45446;-79
2021/09/26 08:47:08;;;;;;;;;11.75;9.00;;;;;20.20;68.63;101422.75;5062447;28;45604;-79
2021/09/26 08:49:35;;;;;;;;;17.50;14.75;;;;;20.19;68.64;101421.88;5061820;28;45427;-79
2021/09/26 08:52:00;;;;;;;;;15.50;14.25;;;;;20.15;68.44;101428.34;5058240;28;45516;-79
2021/09/26 08:54:26;;;;;;;;;15.75;14.50;;;;;20.08;68.55;101427.84;5061793;28;46452;-79
2021/09/26 08:56:51;;;;;;;;;13.25;12.25;;;;;20.02;68.45;101426.44;5059299;28;46374;-79
2021/09/26 08:59:17;;;;;;;;;16.50;14.50;;;;;20.00;69.29;101425.66;5050317;28;45422;-80
2021/09/26 09:01:42;;;;;;;;;18.25;12.75;;;;;20.02;68.60;101423.78;5058758;28;45649;-80
2021/09/26 09:04:08;;;;;;;;;15.50;15.50;;;;;20.09;68.73;101431.38;5058477;28;46561;-80
2021/09/26 09:07:00;;;;;;;;;17.50;13.75;;;;;20.18;68.54;101427.31;5040594;28;45294;-80
2021/09/26 09:09:25;;;;;;;;;12.25;9.75;;;;;20.14;68.63;101432.00;5064681;28;45260;-79
2021/09/26 09:12:05;;;;;;;;;15.00;12.50;;;;;20.17;68.76;101429.13;5077527;28;45219;-80
2021/09/26 09:14:52;;;;;;;;;18.50;13.75;;;;;20.15;68.81;101431.03;5078907;28;47648;-80
2021/09/26 09:17:35;;;;;;;;;15.25;13.75;;;;;20.10;68.82;101423.28;5060521;28;45375;-79
2021/09/26 09:20:29;;;;;;;;;15.25;14.25;;;;;20.08;68.69;101425.19;5079101;28;45466;-79
2021/09/26 09:23:07;;;;;;;;;17.25;16.00;;;;;19.98;69.14;101416.03;5078942;28;45243;-79
2021/09/26 09:25:49;;;;;;;;;19.50;15.50;;;;;20.04;69.86;101418.34;5079254;28;45667;-80
2021/09/26 09:28:23;;;;;;;;;14.25;13.50;;;;;20.05;69.62;101421.88;5078665;28;45477;-79
2021/09/26 09:30:54;;;;;;;;;18.75;15.75;;;;;20.08;69.16;101424.31;5078104;28;45412;-79
2021/09/26 09:33:21;;;;;;;;;16.75;14.50;;;;;20.06;69.26;101426.25;5072907;28;45346;-79
2021/09/26 09:35:50;;;;;;;;;16.50;13.00;;;;;20.12;69.61;101434.75;5079837;28;45368;-79
2021/09/26 09:38:18;;;;;;;;;17.75;14.75;;;;;20.18;69.16;101438.84;5078942;28;45344;-80
2021/09/26 09:40:44;;;;;;;;;13.00;13.00;;;;;20.29;69.03;101432.84;5067348;28;45370;-80
2021/09/26 09:43:10;;;;;;;;;16.50;13.50;;;;;20.32;68.59;101434.44;5082165;28;45504;-80
2021/09/26 09:45:39;;;;;;;;;15.00;13.00;;;;;20.29;69.00;101435.50;5081950;28;45218;-80
2021/09/26 09:48:08;;;;;;;;;17.25;14.25;;;;;20.33;68.66;101434.34;5069427;28;45421;-80
2021/09/26 09:50:55;;;;;;;;;17.50;16.75;;;;;20.27;68.71;101426.75;5076592;28;45311;-80
2021/09/26 09:53:45;;;;;;;;;14.00;12.25;;;;;20.28;68.75;101432.91;5082351;28;45155;-80
2021/09/26 09:56:26;;;;;;;;;13.75;12.75;;;;;20.29;69.38;101423.97;5068788;28;46101;-80
2021/09/26 09:58:58;;;;;;;;;17.75;15.25;;;;;20.31;68.76;101436.25;5061831;28;45639;-80
2021/09/26 10:01:33;;;;;;;;;18.50;12.75;;;;;20.37;69.24;101435.03;5064070;28;45356;-79
2021/09/26 10:04:00;;;;;;;;;16.25;14.25;;;;;20.48;69.16;101434.31;5081745;28;45380;-79
2021/09/26 10:06:29;;;;;;;;;13.75;11.75;;;;;20.61;68.86;101429.03;5081627;28;46292;-79
2021/09/26 10:08:58;;;;;;;;;16.00;14.25;;;;;20.71;69.20;101431.09;5075437;28;45560;-80
2021/09/26 10:11:25;;;;;;;;;14.00;12.50;;;;;20.81;68.40;101429.56;5033439;28;45289;-80
2021/09/26 10:13:50;;;;;;;;;11.25;8.75;;;;;20.92;68.42;101427.00;5059132;28;45489;-80
2021/09/26 10:16:16;;;;;;;;;12.25;12.25;;;;;21.05;67.86;101442.25;5060261;28;47285;-80
2021/09/26 10:18:42;;;;;;;;;14.50;14.00;;;;;21.11;67.98;101428.47;5062442;28;45436;-80
2021/09/26 10:21:09;;;;;;;;;17.00;15.75;;;;;21.20;68.13;101426.16;5081561;28;45257;-79
2021/09/26 10:23:35;;;;;;;;;13.75;12.25;;;;;21.26;67.81;101428.41;5081413;28;45761;-80
2021/09/26 10:26:02;;;;;;;;;16.25;14.50;;;;;21.33;67.57;101423.50;5063628;28;47131;-79
2021/09/26 10:28:30;;;;;;;;;15.75;11.50;;;;;21.41;67.75;101421.16;5081066;28;45516;-79
2021/09/26 10:30:58;;;;;;;;;15.50;13.50;;;;;21.42;67.13;101422.00;5063133;28;45465;-79
2021/09/26 10:33:25;;;;;;;;;14.75;12.75;;;;;21.46;66.78;101428.84;5081273;28;45423;-80
2021/09/26 10:35:52;;;;;;;;;15.00;13.25;;;;;21.49;67.32;101425.97;5080413;28;45397;-79
2021/09/26 10:38:20;;;;;;;;;15.00;13.25;;;;;21.48;66.73;101426.97;5083323;27;45549;-80
2021/09/26 10:40:46;;;;;;;;;16.50;16.00;;;;;21.56;66.71;101429.06;5079644;28;45414;-80
2021/09/26 10:43:17;;;;;;;;;16.00;13.50;;;;;21.61;66.93;101429.63;5081332;28;45215;-80
2021/09/26 10:45:42;;;;;;;;;15.75;14.50;;;;;21.62;66.44;101423.31;5080511;28;45412;-80
2021/09/26 10:48:08;;;;;;;;;15.25;14.25;;;;;21.66;66.28;101429.28;5081668;28;45307;-80
2021/09/26 10:50:36;;;;;;;;;14.50;12.50;;;;;21.68;65.93;101424.72;5081391;28;45242;-80
2021/09/26 10:53:13;;;;;;;;;11.75;11.25;;;;;21.70;66.26;101431.63;5081010;28;45309;-80
2021/09/26 10:55:43;;;;;;;;;15.25;14.25;;;;;21.69;66.20;101423.72;5081281;28;45330;-80
2021/09/26 10:58:12;;;;;;;;;16.25;13.25;;;;;21.67;65.72;101431.88;5081135;28;45735;-80
2021/09/26 11:00:40;;;;;;;;;15.25;13.75;;;;;21.65;65.78;101427.59;5081265;28;45188;-80
2021/09/26 11:03:08;;;;;;;;;15.25;13.75;;;;;21.54;65.89;101412.28;5081058;28;45460;-80
2021/09/26 11:05:50;;;;;;;;;17.75;17.00;;;;;21.51;66.14;101425.88;5081043;28;46415;-80
2021/09/26 11:08:25;;;;;;;;;9.00;9.00;;;;;21.44;66.15;101420.09;5079742;28;45566;-80
2021/09/26 11:10:56;;;;;;;;;15.00;12.25;;;;;21.44;66.38;101412.06;5075246;28;45452;-80
2021/09/26 11:13:36;;;;;;;;;11.75;11.00;;;;;21.42;65.76;101412.19;5080499;28;45457;-80
2021/09/26 11:16:03;;;;;;;;;13.25;12.50;;;;;21.32;65.63;101417.31;5077444;28;46842;-79
2021/09/26 11:18:48;;;;;;;;;12.00;11.50;;;;;21.21;66.35;101396.63;5058328;28;45535;-80
2021/09/26 11:21:39;;;;;;;;;13.50;12.50;;;;;21.24;66.18;101401.78;5042793;28;45431;-80
2021/09/26 11:24:13;;;;;;;;;14.00;11.50;;;;;21.19;65.69;101387.88;5076287;28;45575;-80
2021/09/26 11:26:56;;;;;;;;;11.25;9.50;;;;;21.23;66.02;101401.91;5068676;28;45349;-80
2021/09/26 11:29:25;;;;;;;;;12.75;11.25;;;;;21.18;65.77;101393.34;5080508;28;45491;-80
2021/09/26 11:31:51;;;;;;;;;10.50;9.75;;;;;21.14;65.78;101396.22;5062604;28;45389;-80
2021/09/26 11:34:36;;;;;;;;;11.75;10.50;;;;;21.10;65.95;101400.06;5061293;28;46380;-80
2021/09/26 11:37:02;;;;;;;;;13.50;12.75;;;;;21.01;65.65;101392.66;5080272;28;45640;-80
2021/09/26 11:39:29;;;;;;;;;13.25;12.75;;;;;21.00;66.19;101397.16;5060213;28;45806;-80
2021/09/26 11:41:55;;;;;;;;;13.75;11.00;;;;;20.90;66.17;101391.53;5062648;28;45319;-80
2021/09/26 11:44:21;;;;;;;;;11.75;10.50;;;;;20.82;66.31;101393.84;5061818;28;45417;-80
2021/09/26 11:46:52;;;;;;;;;15.25;12.00;;;;;20.79;66.65;101388.75;5062134;28;47164;-80
2021/09/26 11:49:18;;;;;;;;;14.25;12.25;;;;;20.83;66.72;101405.41;5080350;28;45608;-80
2021/09/26 11:51:43;;;;;;;;;14.25;11.75;;;;;20.75;66.87;101387.19;5080743;28;45365;-80
2021/09/26 11:54:10;;;;;;;;;13.75;13.00;;;;;20.69;66.84;101383.97;5079786;28;45493;-80
2021/09/26 11:56:39;;;;;;;;;14.75;14.75;;;;;20.71;66.76;101381.22;5080483;28;45501;-80
2021/09/26 11:59:12;;;;;;;;;18.75;15.25;;;;;20.68;66.60;101376.94;5078400;28;45582;-80
2021/09/26 12:01:46;;;;;;;;;14.50;11.25;;;;;20.73;66.89;101373.09;5061962;28;45320;-80
2021/09/26 12:04:20;;;;;;;;;12.00;12.00;;;;;20.75;66.72;101358.69;5079616;28;45459;-80
2021/09/26 12:07:00;;;;;;;;;11.25;10.50;;;;;20.75;66.74;101368.50;5079291;28;45432;-80
2021/09/26 12:09:38;;;;;;;;;11.25;10.25;;;;;20.75;66.84;101360.50;5079978;28;45367;-80
2021/09/26 12:12:10;;;;;;;;;10.50;9.25;;;;;20.75;66.75;101364.03;5061783;28;45268;-80
2021/09/26 12:14:38;;;;;;;;;9.25;9.00;;;;;20.75;66.88;101366.69;5079573;28;45556;-80
2021/09/26 12:17:07;;;;;;;;;13.25;11.00;;;;;20.84;67.15;101370.56;5076109;28;45425;-80
2021/09/26 12:19:34;;;;;;;;;10.50;10.50;;;;;20.91;66.42;101363.84;5061140;28;45399;-80
2021/09/26 12:22:12;;;;;;;;;9.00;8.50;;;;;20.92;66.29;101360.22;5079751;28;45293;-80
2021/09/26 12:24:43;;;;;;;;;11.50;11.50;;;;;20.96;67.19;101370.72;5061266;28;46802;-80
2021/09/26 12:27:17;;;;;;;;;12.50;9.75;;;;;20.96;67.13;101355.53;5079868;28;45378;-80
2021/09/26 12:30:01;;;;;;;;;8.00;8.00;;;;;21.04;66.73;101354.19;5060900;28;45291;-80
2021/09/26 12:32:30;;;;;;;;;12.25;9.75;;;;;21.05;66.61;101350.53;5080052;28;45278;-80
2021/09/26 12:34:58;;;;;;;;;11.25;10.25;;;;;21.10;66.35;101354.63;5079646;28;46717;-80
2021/09/26 12:37:26;;;;;;;;;14.25;12.25;;;;;21.12;66.31;101351.84;5077361;28;45301;-80
2021/09/26 12:39:56;;;;;;;;;9.50;9.50;;;;;21.05;65.82;101339.84;5066599;28;45220;-80
2021/09/26 12:42:26;;;;;;;;;9.00;7.75;;;;;21.01;66.42;101334.72;5061207;28;45348;-80
2021/09/26 12:44:51;;;;;;;;;9.50;9.50;;;;;21.07;66.15;101346.81;5079088;28;45301;-80
2021/09/26 12:47:23;;;;;;;;;13.75;10.25;;;;;21.04;66.14;101330.97;5079539;28;45364;-80
2021/09/26 12:49:50;;;;;;;;;13.00;13.00;;;;;21.08;66.65;101335.19;5061535;28;45450;-80
2021/09/26 12:52:27;;;;;;;;;8.50;8.50;;;;;21.05;66.86;101332.69;5079497;28;45290;-80
2021/09/26 12:55:15;;;;;;;;;7.25;7.25;;;;;21.04;66.59;101327.47;5061309;28;45466;-80
2021/09/26 12:57:42;;;;;;;;;9.50;8.25;;;;;21.07;67.00;101329.91;5078925;28;45543;-81
2021/09/26 13:00:14;;;;;;;;;9.25;9.25;;;;;21.14;66.91;101340.09;5079344;28;45295;-80
2021/09/26 13:02:49;;;;;;;;;10.25;9.25;;;;;21.12;66.45;101341.16;5076147;28;45524;-80
2021/09/26 13:05:28;;;;;;;;;11.00;9.25;;;;;21.14;66.75;101340.09;5079223;28;45258;-79
2021/09/26 13:08:26;;;;;;;;;11.25;11.25;;;;;21.18;66.41;101339.88;5078920;28;45360;-76
2021/09/26 13:11:24;;;;;;;;;9.25;9.25;;;;;21.11;67.12;101337.63;5077528;28;45399;-80
2021/09/26 13:14:08;;;;;;;;;8.25;8.25;;;;;21.10;66.87;101335.91;5036864;28;45543;-80
2021/09/26 13:16:39;;;;;;;;;9.25;9.25;;;;;21.07;67.18;101335.25;5063285;28;46405;-80
2021/09/26 13:19:38;;;;;;;;;9.50;8.75;;;;;21.08;67.23;101337.84;5077382;28;45699;-81
2021/09/26 13:22:14;;;;;;;;;7.25;6.50;;;;;21.08;66.88;101329.81;5071137;28;45247;-81
2021/09/26 13:25:15;;;;;;;;;9.25;8.00;;;;;21.07;68.01;101340.59;5063630;28;45267;-80
2021/09/26 13:27:54;;;;;;;;;6.25;5.75;;;;;21.07;67.17;101345.94;5068663;28;45465;-77
2021/09/26 13:30:29;;;;;;;;;4.00;4.00;;;;;20.90;67.70;101359.47;5077307;28;45495;-79
2021/09/26 13:33:26;;;;;;;;;4.75;4.00;;;;;20.77;67.49;101366.59;5077204;28;45597;-79
2021/09/26 13:35:52;;;;;;;;;3.25;3.25;;;;;20.62;67.01;101361.31;5074909;28;45437;-80
2021/09/26 13:38:20;;;;;;;;;4.75;4.50;;;;;20.60;67.01;101365.91;5068775;28;46022;-80
2021/09/26 13:40:50;;;;;;;;;5.00;5.00;;;;;20.58;67.58;101370.50;5066685;28;45748;-82
2021/09/26 13:43:35;;;;;;;;;4.00;2.75;;;;;20.66;67.58;101372.66;5080888;28;45508;-82
2021/09/26 13:46:02;;;;;;;;;3.50;3.00;;;;;20.69;67.70;101372.47;5069493;28;45500;-83
2021/09/26 13:48:28;;;;;;;;;3.00;3.00;;;;;20.71;67.55;101369.69;5078712;28;45453;-85
2021/09/26 13:50:55;;;;;;;;;5.00;4.00;;;;;20.66;67.47;101373.53;5072027;28;45340;-82
2021/09/26 13:53:23;;;;;;;;;6.25;5.00;;;;;20.61;67.54;101364.94;5073975;28;45803;-78
2021/09/26 13:55:49;;;;;;;;;8.00;6.50;;;;;20.66;67.60;101372.66;5080218;28;46253;-79
2021/09/26 13:58:17;;;;;;;;;5.00;4.00;;;;;20.63;68.45;101349.69;5069945;28;45522;-80
2021/09/26 14:00:44;;;;;;;;;4.50;4.00;;;;;20.62;68.07;101358.63;5065302;28;46461;-80
2021/09/26 14:03:09;;;;;;;;;7.50;5.00;;;;;20.65;68.26;101354.91;5062566;28;45354;-80
2021/09/26 14:05:35;;;;;;;;;5.75;5.75;;;;;20.62;67.99;101334.59;5063078;28;45488;-77
2021/09/26 14:08:00;;;;;;;;;8.75;8.00;;;;;20.66;69.30;101335.28;5064645;28;45249;-79
2021/09/26 14:10:25;;;;;;;;;7.50;7.50;;;;;20.68;68.96;101338.69;5061614;28;45433;-81
2021/09/26 14:12:51;;;;;;;;;7.00;6.25;;;;;20.72;68.13;101353.53;5079043;28;45346;-81
2021/09/26 14:15:16;;;;;;;;;9.00;8.00;;;;;20.72;68.70;101350.03;5073279;28;45431;-79
2021/09/26 14:17:42;;;;;;;;;11.50;9.25;;;;;20.74;70.50;101346.28;5069057;28;45753;-78
2021/09/26 14:20:09;;;;;;;;;5.75;5.00;;;;;20.74;70.80;101353.47;5072586;28;45500;-80
2021/09/26 14:22:36;;;;;;;;;5.25;5.25;;;;;20.74;70.32;101361.47;5071212;28;45521;-78
2021/09/26 14:25:07;;;;;;;;;7.50;6.75;;;;;20.70;71.31;101379.50;5068574;28;47041;-79
2021/09/26 14:27:33;;;;;;;;;8.00;6.00;;;;;20.68;70.45;101368.94;5072936;27;45423;-78
2021/09/26 14:29:59;;;;;;;;;7.50;6.75;;;;;20.71;70.03;101375.03;5066707;28;45441;-79
2021/09/26 14:32:24;;;;;;;;;9.25;9.25;;;;;20.69;71.01;101357.28;5079250;28;45532;-79
2021/09/26 14:34:50;;;;;;;;;11.75;8.50;;;;;20.68;70.61;101349.38;5055881;28;45368;-76
2021/09/26 14:37:16;;;;;;;;;12.75;10.75;;;;;20.69;72.00;101351.94;5079066;28;45459;-76
2021/09/26 14:39:42;;;;;;;;;11.25;10.25;;;;;20.64;71.28;101348.72;5070101;28;45335;-76
2021/09/26 14:42:08;;;;;;;;;15.00;12.75;;;;;20.68;71.56;101358.25;5080345;28;45319;-76
2021/09/26 14:44:34;;;;;;;;;14.25;9.50;;;;;20.65;71.67;101346.91;5062882;28;45394;-76
2021/09/26 14:47:00;;;;;;;;;10.00;8.25;;;;;20.67;70.21;101350.31;5078958;28;45353;-76
2021/09/26 14:49:25;;;;;;;;;10.00;8.00;;;;;20.68;69.96;101349.38;5071987;28;46135;-75
2021/09/26 14:51:52;;;;;;;;;9.75;8.50;;;;;20.68;69.90;101355.56;5064118;28;45554;-76
2021/09/26 14:54:18;;;;;;;;;11.00;10.75;;;;;20.68;70.02;101352.91;5072052;28;46908;-76
2021/09/26 14:56:44;;;;;;;;;12.75;11.00;;;;;20.67;71.03;101353.00;5071556;28;46965;-75
2021/09/26 14:59:13;;;;;;;;;10.75;9.75;;;;;20.61;69.86;101340.91;5072575;28;45554;-76
2021/09/26 15:01:40;;;;;;;;;12.25;9.75;;;;;20.61;70.64;101374.78;5079324;28;45895;-75
2021/09/26 15:04:06;;;;;;;;;9.50;8.75;;;;;20.53;70.47;101346.75;5080278;28;45445;-76
2021/09/26 15:06:32;;;;;;;;;13.00;11.25;;;;;20.48;71.33;101351.56;5080811;28;45165;-76
2021/09/26 15:08:58;;;;;;;;;10.25;10.00;;;;;20.46;71.43;101354.34;5061859;28;46087;-76
2021/09/26 15:11:26;;;;;;;;;11.75;9.00;;;;;20.50;71.80;101367.44;5070679;28;45540;-75
2021/09/26 15:13:52;;;;;;;;;12.00;11.00;;;;;20.53;71.58;101357.44;5073006;28;45295;-76
2021/09/26 15:16:18;;;;;;;;;9.00;9.00;;;;;20.57;71.12;101360.75;5078936;28;45421;-75
2021/09/26 15:18:43;;;;;;;;;12.00;8.50;;;;;20.61;71.12;101358.75;5075606;28;46423;-75
2021/09/26 15:21:09;;;;;;;;;10.25;9.25;;;;;20.67;71.49;101353.00;5080726;28;45350;-75
2021/09/26 15:23:35;;;;;;;;;9.75;9.75;;;;;20.74;71.38;101359.63;5077605;28;45363;-76
2021/09/26 15:26:01;;;;;;;;;10.75;10.25;;;;;20.81;70.63;101354.75;5077714;28;45974;-76
2021/09/26 15:28:26;;;;;;;;;11.75;11.75;;;;;20.90;73.20;101366.63;5061238;28;46507;-76
2021/09/26 15:30:52;;;;;;;;;12.00;10.00;;;;;20.92;74.05;101354.00;5080633;28;45183;-76
2021/09/26 15:33:17;;;;;;;;;12.75;11.25;;;;;20.98;72.92;101355.44;5060760;28;46698;-76
2021/09/26 15:35:43;;;;;;;;;12.50;10.00;;;;;21.04;72.67;101360.38;5079416;28;45223;-77
2021/09/26 15:38:08;;;;;;;;;9.75;9.50;;;;;21.11;74.29;101361.66;5079342;28;45539;-76
2021/09/26 15:40:38;;;;;;;;;13.00;11.00;;;;;21.17;71.17;101360.41;5060282;28;45271;-76
2021/09/26 15:43:04;;;;;;;;;10.00;9.00;;;;;21.19;72.47;101353.13;5062006;28;45322;-76
2021/09/26 15:45:31;;;;;;;;;10.75;9.25;;;;;21.27;71.34;101359.75;5080677;28;45427;-76
2021/09/26 15:47:57;;;;;;;;;14.50;10.25;;;;;21.25;71.64;101359.88;5079651;28;45639;-76
2021/09/26 15:50:25;;;;;;;;;10.00;10.00;;;;;21.30;72.38;101360.41;5080161;28;45321;-76
2021/09/26 15:52:52;;;;;;;;;13.50;10.75;;;;;21.32;72.13;101354.94;5060543;28;45416;-76
2021/09/26 15:55:19;;;;;;;;;10.25;9.25;;;;;21.35;70.49;101360.97;5067060;28;45553;-76
2021/09/26 15:57:46;;;;;;;;;12.75;12.00;;;;;21.35;71.10;101360.09;5076627;28;45442;-76
2021/09/26 16:00:17;;;;;;;;;13.75;12.00;;;;;21.35;70.68;101368.13;5080026;28;45617;-76
2021/09/26 16:02:43;;;;;;;;;13.00;12.25;;;;;21.33;71.89;101370.03;5077986;28;45335;-77
2021/09/26 16:05:09;;;;;;;;;10.75;10.50;;;;;21.31;71.03;101377.31;5072043;28;45362;-75
2021/09/26 16:07:34;;;;;;;;;11.25;9.75;;;;;21.32;72.32;101385.22;5073939;28;46623;-75